createdAt,value
2023-12-12T00:00:28.174Z,8.20
2023-12-12T00:01:28.228Z,7.80
2023-12-12T00:02:28.169Z,9.80
2023-12-12T00:03:30.423Z,8.50
2023-12-12T00:04:28.235Z,9.40
2023-12-12T00:05:28.150Z,7.30
2023-12-12T00:06:28.110Z,8.30
2023-12-12T00:07:28.258Z,7.80
2023-12-12T00:08:28.065Z,7.30
2023-12-12T00:09:28.060Z,8.10
2023-12-12T00:10:29.367Z,8.70
2023-12-12T00:11:28.492Z,7.50
2023-12-12T00:12:28.015Z,8.60
2023-12-12T00:13:28.079Z,7.70
2023-12-12T00:14:30.239Z,7.30
2023-12-12T00:15:28.182Z,8.10
2023-12-12T00:16:28.233Z,7.50
2023-12-12T00:17:28.153Z,7.60
2023-12-12T00:18:28.030Z,8.00
2023-12-12T00:19:28.018Z,7.50
2023-12-12T00:20:27.956Z,7.90
2023-12-12T00:21:27.951Z,7.70
2023-12-12T00:22:27.990Z,8.60
2023-12-12T00:23:27.917Z,7.40
2023-12-12T00:24:27.890Z,6.20
2023-12-12T00:25:27.969Z,7.10
2023-12-12T00:26:27.925Z,8.70
2023-12-12T00:27:27.968Z,6.80
2023-12-12T00:28:27.903Z,7.80
2023-12-12T00:29:27.889Z,7.70
2023-12-12T00:30:27.883Z,8.10
2023-12-12T00:31:27.881Z,7.90
2023-12-12T00:32:27.830Z,7.80
2023-12-12T00:33:27.899Z,7.00
2023-12-12T00:34:27.923Z,7.20
2023-12-12T00:35:27.825Z,8.30
2023-12-12T00:36:27.802Z,7.50
2023-12-12T00:37:27.824Z,6.80
2023-12-12T00:38:27.772Z,6.90
2023-12-12T00:39:29.546Z,8.80
2023-12-12T00:40:27.856Z,6.20
2023-12-12T00:41:27.830Z,7.90
2023-12-12T00:42:27.701Z,6.70
2023-12-12T00:43:27.758Z,7.50
2023-12-12T00:44:27.839Z,8.60
2023-12-12T00:45:27.697Z,8.10
2023-12-12T00:46:28.336Z,7.80
2023-12-12T00:47:27.678Z,6.40
2023-12-12T00:48:27.787Z,8.20
2023-12-12T00:49:27.738Z,7.40
2023-12-12T00:50:27.727Z,7.40
2023-12-12T00:51:27.677Z,6.90
2023-12-12T00:52:27.709Z,6.90
2023-12-12T00:53:27.616Z,7.10
2023-12-12T00:54:27.605Z,7.50
2023-12-12T00:55:27.630Z,7.80
2023-12-12T00:56:28.368Z,8.30
2023-12-12T00:57:27.587Z,7.00
2023-12-12T00:58:27.607Z,8.10
2023-12-12T00:59:27.571Z,7.30
2023-12-12T01:00:27.623Z,8.40
2023-12-12T01:01:27.631Z,7.50
2023-12-12T01:02:27.549Z,8.00
2023-12-12T01:03:27.512Z,7.50
2023-12-12T01:04:27.614Z,7.80
2023-12-12T01:05:27.543Z,7.60
2023-12-12T01:06:29.392Z,8.00
2023-12-12T01:07:27.564Z,6.90
2023-12-12T01:08:27.437Z,7.40
2023-12-12T01:09:27.451Z,8.30
2023-12-12T01:10:27.465Z,7.50
2023-12-12T01:11:28.361Z,8.30
2023-12-12T01:12:27.509Z,7.30
2023-12-12T01:13:27.459Z,7.20
2023-12-12T01:14:27.397Z,7.70
2023-12-12T01:15:27.353Z,7.50
2023-12-12T01:16:30.571Z,7.90
2023-12-12T01:17:27.381Z,7.60
2023-12-12T01:18:28.914Z,18.40
2023-12-12T01:19:27.470Z,7.40
2023-12-12T01:20:27.311Z,7.50
2023-12-12T01:21:27.357Z,8.10
2023-12-12T01:22:27.305Z,7.60
2023-12-12T01:23:27.329Z,7.50
2023-12-12T01:24:27.261Z,6.90
2023-12-12T01:25:27.387Z,6.90
2023-12-12T01:26:27.249Z,7.20
2023-12-12T01:27:27.280Z,7.60
2023-12-12T01:28:27.250Z,7.40
2023-12-12T01:29:27.205Z,7.70
2023-12-12T01:30:27.250Z,6.90
2023-12-12T01:31:27.254Z,7.10
2023-12-12T01:32:27.199Z,6.90
2023-12-12T01:33:27.208Z,7.20
2023-12-12T01:34:27.264Z,9.30
2023-12-12T01:35:27.163Z,8.00
2023-12-12T01:36:27.154Z,8.30
2023-12-12T01:37:27.156Z,7.40
2023-12-12T01:38:27.117Z,7.00
2023-12-12T01:39:27.129Z,7.40
2023-12-12T01:40:27.146Z,8.00
2023-12-12T01:41:27.112Z,7.10
2023-12-12T01:42:27.086Z,7.20
2023-12-12T01:43:27.242Z,6.90
2023-12-12T01:44:27.089Z,6.40
2023-12-12T01:45:27.057Z,7.30
2023-12-12T01:46:27.124Z,6.90
2023-12-12T01:47:27.064Z,6.90
2023-12-12T01:48:27.665Z,6.70
2023-12-12T01:49:27.075Z,6.80
2023-12-12T01:50:27.031Z,7.50
2023-12-12T01:51:27.018Z,7.50
2023-12-12T01:52:27.055Z,7.50
2023-12-12T01:53:27.009Z,7.60
2023-12-12T01:54:26.971Z,6.00
2023-12-12T01:55:26.992Z,7.40
2023-12-12T01:56:26.949Z,7.40
2023-12-12T01:57:26.978Z,7.30
2023-12-12T01:58:26.997Z,6.90
2023-12-12T01:59:26.935Z,7.40
2023-12-12T02:00:26.891Z,7.60
2023-12-12T02:01:26.946Z,7.70
2023-12-12T02:02:26.923Z,7.00
2023-12-12T02:03:26.859Z,7.60
2023-12-12T02:04:26.971Z,9.70
2023-12-12T02:05:26.999Z,6.60
2023-12-12T02:06:26.867Z,7.20
2023-12-12T02:07:26.898Z,6.90
2023-12-12T02:08:26.884Z,6.50
2023-12-12T02:09:26.801Z,8.20
2023-12-12T02:10:26.836Z,6.60
2023-12-12T02:11:26.803Z,7.20
2023-12-12T02:12:26.769Z,6.30
2023-12-12T02:13:26.811Z,6.30
2023-12-12T02:14:26.749Z,7.50
2023-12-12T02:15:26.721Z,7.80
2023-12-12T02:16:26.851Z,6.90
2023-12-12T02:17:26.822Z,7.40
2023-12-12T02:18:26.826Z,7.90
2023-12-12T02:19:26.807Z,8.60
2023-12-12T02:20:26.688Z,7.60
2023-12-12T02:21:26.685Z,6.90
2023-12-12T02:22:26.715Z,7.60
2023-12-12T02:23:26.657Z,7.50
2023-12-12T02:24:26.662Z,6.70
2023-12-12T02:25:26.670Z,7.00
2023-12-12T02:26:26.625Z,7.50
2023-12-12T02:27:26.627Z,7.60
2023-12-12T02:28:26.659Z,7.00
2023-12-12T02:29:26.601Z,8.30
2023-12-12T02:30:26.590Z,7.10
2023-12-12T02:31:26.631Z,7.00
2023-12-12T02:32:28.586Z,7.30
2023-12-12T02:33:26.676Z,6.70
2023-12-12T02:34:26.629Z,6.70
2023-12-12T02:35:30.444Z,8.20
2023-12-12T02:36:26.697Z,8.20
2023-12-12T02:37:26.666Z,7.70
2023-12-12T02:38:26.518Z,6.90
2023-12-12T02:39:26.578Z,7.20
2023-12-12T02:40:26.516Z,6.90
2023-12-12T02:41:26.514Z,7.00
2023-12-12T02:42:26.462Z,8.40
2023-12-12T02:43:26.473Z,7.50
2023-12-12T02:44:26.448Z,6.80
2023-12-12T02:45:26.430Z,7.30
2023-12-12T02:46:26.427Z,7.30
2023-12-12T02:47:26.416Z,6.90
2023-12-12T02:48:26.457Z,6.70
2023-12-12T02:49:26.487Z,6.40
2023-12-12T02:50:26.364Z,7.30
2023-12-12T02:51:27.415Z,6.60
2023-12-12T02:52:26.572Z,7.70
2023-12-12T02:53:26.471Z,7.60
2023-12-12T02:54:26.393Z,6.40
2023-12-12T02:55:26.382Z,7.10
2023-12-12T02:56:26.387Z,6.70
2023-12-12T02:57:26.329Z,6.30
2023-12-12T02:58:26.333Z,5.90
2023-12-12T02:59:26.285Z,7.40
2023-12-12T03:00:26.282Z,7.20
2023-12-12T03:01:26.369Z,6.60
2023-12-12T03:02:26.240Z,7.10
2023-12-12T03:03:26.259Z,7.00
2023-12-12T03:04:26.350Z,6.30
2023-12-12T03:05:26.265Z,7.50
2023-12-12T03:06:26.217Z,7.80
2023-12-12T03:07:26.870Z,6.20
2023-12-12T03:08:26.196Z,6.80
2023-12-12T03:09:26.210Z,6.90
2023-12-12T03:10:26.223Z,7.20
2023-12-12T03:11:26.137Z,6.90
2023-12-12T03:12:26.162Z,7.90
2023-12-12T03:13:26.195Z,7.20
2023-12-12T03:14:26.135Z,7.30
2023-12-12T03:15:26.113Z,7.30
2023-12-12T03:16:26.154Z,6.60
2023-12-12T03:17:26.819Z,7.70
2023-12-12T03:18:26.926Z,6.20
2023-12-12T03:19:26.257Z,6.60
2023-12-12T03:20:26.115Z,6.60
2023-12-12T03:21:26.073Z,7.20
2023-12-12T03:22:26.069Z,7.00
2023-12-12T03:23:26.052Z,6.50
2023-12-12T03:24:26.024Z,6.70
2023-12-12T03:25:26.042Z,7.00
2023-12-12T03:26:25.993Z,7.80
2023-12-12T03:27:26.027Z,7.00
2023-12-12T03:28:26.055Z,7.10
2023-12-12T03:29:25.973Z,6.80
2023-12-12T03:30:25.979Z,6.70
2023-12-12T03:31:26.004Z,6.70
2023-12-12T03:32:25.914Z,6.50
2023-12-12T03:33:26.097Z,6.70
2023-12-12T03:34:26.040Z,8.00
2023-12-12T03:35:25.899Z,6.30
2023-12-12T03:36:25.899Z,6.00
2023-12-12T03:37:25.918Z,7.90
2023-12-12T03:38:26.300Z,6.00
2023-12-12T03:39:25.884Z,7.00
2023-12-12T03:40:25.910Z,5.70
2023-12-12T03:41:25.914Z,7.40
2023-12-12T03:42:25.833Z,6.70
2023-12-12T03:43:25.845Z,6.50
2023-12-12T03:44:25.817Z,6.40
2023-12-12T03:45:25.801Z,6.30
2023-12-12T03:46:25.815Z,6.90
2023-12-12T03:47:25.916Z,6.80
2023-12-12T03:48:25.864Z,6.90
2023-12-12T03:49:25.862Z,6.60
2023-12-12T03:50:25.743Z,7.80
2023-12-12T03:51:25.744Z,6.30
2023-12-12T03:52:27.172Z,5.70
2023-12-12T03:53:25.962Z,6.20
2023-12-12T03:54:25.749Z,7.60
2023-12-12T03:55:25.897Z,6.20
2023-12-12T03:56:25.681Z,7.00
2023-12-12T03:57:25.686Z,7.60
2023-12-12T03:58:25.754Z,6.60
2023-12-12T03:59:25.662Z,6.70
2023-12-12T04:00:25.668Z,6.40
2023-12-12T04:01:25.699Z,7.10
2023-12-12T04:02:25.664Z,6.80
2023-12-12T04:03:25.764Z,6.80
2023-12-12T04:04:25.644Z,6.70
2023-12-12T04:05:25.602Z,7.10
2023-12-12T04:06:25.629Z,6.60
2023-12-12T04:07:25.626Z,7.20
2023-12-12T04:08:25.671Z,6.50
2023-12-12T04:09:25.529Z,7.90
2023-12-12T04:10:25.564Z,6.80
2023-12-12T04:11:25.585Z,7.40
2023-12-12T04:12:25.510Z,6.60
2023-12-12T04:13:25.551Z,6.20
2023-12-12T04:14:25.479Z,7.10
2023-12-12T04:15:25.479Z,7.10
2023-12-12T04:16:25.500Z,6.40
2023-12-12T04:17:25.613Z,6.30
2023-12-12T04:18:25.526Z,6.90
2023-12-12T04:19:25.606Z,6.30
2023-12-12T04:20:25.450Z,6.80
2023-12-12T04:21:25.848Z,11.00
2023-12-12T04:22:25.618Z,8.50
2023-12-12T04:23:25.507Z,7.20
2023-12-12T04:24:25.483Z,7.30
2023-12-12T04:25:25.461Z,7.20
2023-12-12T04:26:25.406Z,7.30
2023-12-12T04:27:25.442Z,6.20
2023-12-12T04:28:25.363Z,5.60
2023-12-12T04:29:25.373Z,6.50
2023-12-12T04:30:25.362Z,7.30
2023-12-12T04:31:25.415Z,6.90
2023-12-12T04:32:25.334Z,6.90
2023-12-12T04:33:25.455Z,6.30
2023-12-12T04:34:25.439Z,6.60
2023-12-12T04:35:25.300Z,6.60
2023-12-12T04:36:25.262Z,6.40
2023-12-12T04:37:25.267Z,5.80
2023-12-12T04:38:25.289Z,5.70
2023-12-12T04:39:26.482Z,6.80
2023-12-12T04:40:25.294Z,5.40
2023-12-12T04:41:25.354Z,5.80
2023-12-12T04:42:25.272Z,6.90
2023-12-12T04:43:25.242Z,6.50
2023-12-12T04:44:25.195Z,5.70
2023-12-12T04:45:25.170Z,6.60
2023-12-12T04:46:25.214Z,6.30
2023-12-12T04:47:25.266Z,6.50
2023-12-12T04:48:25.289Z,6.60
2023-12-12T04:49:25.375Z,7.30
2023-12-12T04:50:25.188Z,7.00
2023-12-12T04:51:25.121Z,7.90
2023-12-12T04:52:26.142Z,6.50
2023-12-12T04:53:25.265Z,6.60
2023-12-12T04:54:25.177Z,6.00
2023-12-12T04:55:25.198Z,6.00
2023-12-12T04:56:25.110Z,5.70
2023-12-12T04:57:25.119Z,5.70
2023-12-12T04:58:25.112Z,5.50
2023-12-12T04:59:25.045Z,5.90
2023-12-12T05:00:25.010Z,5.80
2023-12-12T05:01:25.109Z,7.30
2023-12-12T05:02:25.045Z,6.40
2023-12-12T05:03:25.014Z,6.30
2023-12-12T05:04:25.042Z,6.50
2023-12-12T05:05:24.999Z,7.20
2023-12-12T05:06:25.042Z,6.20
2023-12-12T05:07:25.961Z,6.10
2023-12-12T05:08:24.937Z,5.50
2023-12-12T05:09:24.929Z,6.50
2023-12-12T05:10:24.967Z,7.00
2023-12-12T05:11:24.875Z,7.10
2023-12-12T05:12:24.850Z,6.20
2023-12-12T05:13:25.033Z,6.10
2023-12-12T05:14:24.892Z,6.10
2023-12-12T05:15:24.918Z,6.00
2023-12-12T05:16:31.657Z,6.90
2023-12-12T05:17:25.070Z,6.30
2023-12-12T05:18:24.897Z,6.60
2023-12-12T05:19:25.747Z,6.20
2023-12-12T05:20:24.943Z,6.70
2023-12-12T05:21:24.825Z,5.30
2023-12-12T05:22:24.853Z,6.70
2023-12-12T05:23:24.789Z,5.30
2023-12-12T05:24:24.832Z,6.60
2023-12-12T05:25:26.436Z,5.90
2023-12-12T05:26:24.771Z,5.60
2023-12-12T05:27:24.740Z,6.60
2023-12-12T05:28:24.852Z,6.10
2023-12-12T05:29:24.762Z,6.40
2023-12-12T05:30:24.825Z,6.30
2023-12-12T05:31:24.773Z,5.90
2023-12-12T05:32:24.783Z,6.30
2023-12-12T05:33:24.771Z,5.30
2023-12-12T05:34:24.783Z,6.20
2023-12-12T05:35:24.713Z,5.90
2023-12-12T05:36:24.673Z,6.50
2023-12-12T05:37:24.690Z,6.30
2023-12-12T05:38:24.666Z,6.80
2023-12-12T05:39:24.661Z,6.00
2023-12-12T05:40:24.695Z,6.20
2023-12-12T05:41:24.585Z,5.60
2023-12-12T05:42:24.587Z,7.50
2023-12-12T05:43:24.634Z,6.20
2023-12-12T05:44:24.585Z,5.50
2023-12-12T05:45:24.554Z,6.80
2023-12-12T05:46:24.580Z,6.10
2023-12-12T05:47:24.532Z,6.50
2023-12-12T05:48:24.573Z,6.20
2023-12-12T05:49:24.600Z,6.60
2023-12-12T05:50:24.509Z,6.50
2023-12-12T05:51:24.495Z,6.20
2023-12-12T05:52:24.556Z,6.40
2023-12-12T05:53:24.495Z,6.20
2023-12-12T05:54:26.863Z,8.70
2023-12-12T05:55:24.484Z,5.70
2023-12-12T05:56:24.485Z,6.40
2023-12-12T05:57:24.446Z,6.20
2023-12-12T05:58:24.498Z,6.70
2023-12-12T05:59:24.406Z,5.10
2023-12-12T06:00:24.418Z,5.70
2023-12-12T06:01:25.484Z,7.10
2023-12-12T06:02:24.717Z,5.50
2023-12-12T06:03:24.356Z,5.20
2023-12-12T06:04:24.431Z,6.70
2023-12-12T06:05:24.501Z,5.60
2023-12-12T06:06:24.348Z,6.20
2023-12-12T06:07:24.352Z,5.80
2023-12-12T06:08:24.288Z,7.10
2023-12-12T06:09:24.349Z,6.20
2023-12-12T06:10:25.456Z,7.40
2023-12-12T06:11:24.288Z,5.50
2023-12-12T06:12:24.291Z,7.00
2023-12-12T06:13:24.283Z,7.00
2023-12-12T06:14:26.405Z,5.90
2023-12-12T06:15:24.379Z,6.40
2023-12-12T06:16:24.374Z,6.80
2023-12-12T06:17:24.269Z,5.10
2023-12-12T06:18:25.050Z,5.60
2023-12-12T06:19:24.322Z,5.50
2023-12-12T06:20:24.181Z,6.10
2023-12-12T06:21:24.203Z,4.80
2023-12-12T06:22:24.182Z,6.10
2023-12-12T06:23:24.182Z,6.20
2023-12-12T06:24:24.129Z,6.20
2023-12-12T06:25:24.157Z,6.70
2023-12-12T06:26:24.136Z,5.50
2023-12-12T06:27:25.255Z,5.50
2023-12-12T06:28:24.166Z,6.20
2023-12-12T06:29:24.227Z,5.80
2023-12-12T06:30:24.162Z,5.40
2023-12-12T06:31:24.204Z,5.80
2023-12-12T06:32:24.140Z,5.30
2023-12-12T06:33:24.077Z,5.80
2023-12-12T06:34:24.220Z,7.10
2023-12-12T06:35:23.986Z,6.10
2023-12-12T06:36:24.916Z,4.20
2023-12-12T06:37:24.150Z,5.90
2023-12-12T06:38:24.169Z,6.70
2023-12-12T06:39:24.027Z,5.80
2023-12-12T06:40:24.000Z,6.30
2023-12-12T06:41:24.290Z,6.40
2023-12-12T06:42:23.966Z,6.10
2023-12-12T06:43:25.008Z,8.20
2023-12-12T06:44:26.502Z,6.50
2023-12-12T06:45:25.749Z,5.70
2023-12-12T06:46:25.416Z,6.00
2023-12-12T06:47:24.002Z,9.80
2023-12-12T06:48:23.918Z,6.40
2023-12-12T06:49:25.478Z,7.70
2023-12-12T06:50:24.890Z,6.10
2023-12-12T06:51:24.358Z,6.80
2023-12-12T06:52:23.840Z,5.50
2023-12-12T06:53:24.365Z,7.80
2023-12-12T06:54:23.949Z,7.70
2023-12-12T06:55:26.424Z,9.50
2023-12-12T06:56:23.813Z,8.40
2023-12-12T06:57:24.749Z,5.70
2023-12-12T06:58:23.931Z,6.70
2023-12-12T06:59:23.808Z,8.10
2023-12-12T07:00:23.852Z,8.20
2023-12-12T07:01:24.452Z,8.50
2023-12-12T07:02:24.411Z,7.30
2023-12-12T07:03:23.767Z,7.50
2023-12-12T07:04:23.830Z,8.40
2023-12-12T07:05:23.742Z,8.00
2023-12-12T07:06:23.735Z,8.50
2023-12-12T07:07:23.870Z,9.00
2023-12-12T07:08:23.740Z,8.80
2023-12-12T07:09:23.681Z,7.80
2023-12-12T07:10:23.985Z,9.00
2023-12-12T07:11:23.729Z,8.20
2023-12-12T07:12:23.730Z,9.10
2023-12-12T07:13:23.681Z,6.00
2023-12-12T07:14:23.564Z,8.30
2023-12-12T07:15:24.363Z,9.00
2023-12-12T07:16:23.639Z,7.60
2023-12-12T07:17:23.550Z,9.20
2023-12-12T07:18:23.635Z,7.30
2023-12-12T07:19:23.584Z,7.50
2023-12-12T07:20:23.571Z,7.60
2023-12-12T07:21:23.664Z,9.10
2023-12-12T07:22:24.300Z,8.50
2023-12-12T07:23:23.531Z,7.90
2023-12-12T07:24:23.525Z,7.90
2023-12-12T07:25:23.488Z,9.30
2023-12-12T07:26:23.423Z,7.80
2023-12-12T07:27:23.429Z,10.00
2023-12-12T07:28:23.547Z,10.10
2023-12-12T07:29:23.731Z,8.50
2023-12-12T07:30:23.475Z,7.70
2023-12-12T07:31:23.431Z,9.30
2023-12-12T07:32:23.383Z,9.30
2023-12-12T07:33:23.639Z,8.10
2023-12-12T07:34:23.456Z,8.70
2023-12-12T07:35:23.397Z,9.60
2023-12-12T07:36:23.422Z,9.00
2023-12-12T07:37:24.399Z,7.40
2023-12-12T07:38:23.935Z,7.30
2023-12-12T07:39:23.298Z,8.80
2023-12-12T07:40:23.907Z,8.80
2023-12-12T07:41:23.274Z,9.70
2023-12-12T07:42:24.365Z,8.20
2023-12-12T07:43:23.271Z,9.00
2023-12-12T07:44:23.237Z,8.90
2023-12-12T07:45:23.297Z,8.30
2023-12-12T07:46:23.286Z,8.20
2023-12-12T07:47:31.305Z,8.60
2023-12-12T07:48:23.310Z,8.20
2023-12-12T07:49:24.031Z,6.60
2023-12-12T07:50:23.332Z,9.60
2023-12-12T07:51:23.856Z,8.30
2023-12-12T07:52:23.251Z,9.30
2023-12-12T07:53:23.149Z,8.30
2023-12-12T07:54:23.177Z,8.00
2023-12-12T07:55:23.264Z,10.50
2023-12-12T07:56:23.118Z,11.00
2023-12-12T07:57:23.228Z,9.10
2023-12-12T07:58:23.321Z,11.40
2023-12-12T07:59:23.133Z,8.40
2023-12-12T08:00:23.106Z,11.40
2023-12-12T08:01:23.949Z,9.10
2023-12-12T08:02:23.118Z,10.60
2023-12-12T08:03:23.290Z,8.20
2023-12-12T08:04:23.223Z,9.40
2023-12-12T08:05:23.083Z,8.30
2023-12-12T08:06:23.101Z,8.30
2023-12-12T08:07:23.174Z,9.50
2023-12-12T08:08:24.356Z,9.00
2023-12-12T08:09:24.041Z,8.40
2023-12-12T08:10:23.142Z,10.00
2023-12-12T08:11:24.893Z,9.00
2023-12-12T08:12:24.831Z,8.70
2023-12-12T08:13:24.437Z,7.90
2023-12-12T08:14:24.855Z,8.00
2023-12-12T08:15:22.978Z,8.50
2023-12-12T08:16:24.432Z,9.20
2023-12-12T08:17:22.985Z,8.90
2023-12-12T08:18:22.943Z,9.40
2023-12-12T08:19:22.974Z,10.50
2023-12-12T08:20:23.081Z,15.10
2023-12-12T08:21:23.445Z,17.30
2023-12-12T08:22:22.965Z,13.00
2023-12-12T08:23:23.375Z,16.00
2023-12-12T08:24:22.887Z,13.00
2023-12-12T08:25:23.073Z,14.30
2023-12-12T08:26:22.846Z,17.60
2023-12-12T08:27:22.863Z,14.20
2023-12-12T08:28:22.865Z,11.30
2023-12-12T08:29:23.393Z,14.00
2023-12-12T08:30:23.460Z,14.70
2023-12-12T08:31:23.471Z,21.00
2023-12-12T08:32:23.488Z,11.60
2023-12-12T08:33:23.656Z,11.30
2023-12-12T08:34:23.449Z,13.20
2023-12-12T08:35:24.701Z,13.90
2023-12-12T08:36:23.460Z,15.10
2023-12-12T08:37:22.771Z,20.00
2023-12-12T08:38:23.712Z,23.10
2023-12-12T08:39:23.459Z,20.10
2023-12-12T08:40:22.927Z,17.20
2023-12-12T08:41:22.707Z,16.70
2023-12-12T08:42:23.413Z,19.00
2023-12-12T08:43:23.905Z,20.30
2023-12-12T08:44:22.620Z,17.70
2023-12-12T08:45:22.622Z,16.80
2023-12-12T08:46:22.688Z,17.70
2023-12-12T08:47:24.467Z,13.60
2023-12-12T08:48:23.994Z,21.40
2023-12-12T08:49:22.698Z,14.30
2023-12-12T08:50:22.825Z,16.50
2023-12-12T08:51:23.387Z,22.20
2023-12-12T08:52:22.541Z,15.50
2023-12-12T08:53:22.733Z,17.20
2023-12-12T08:54:22.596Z,16.20
2023-12-12T08:55:22.656Z,17.70
2023-12-12T08:56:23.138Z,13.60
2023-12-12T08:57:22.533Z,18.90
2023-12-12T08:58:23.417Z,19.90
2023-12-12T08:59:22.479Z,16.20
2023-12-12T09:00:22.534Z,17.80
2023-12-12T09:01:22.559Z,14.10
2023-12-12T09:02:22.667Z,15.40
2023-12-12T09:03:23.430Z,15.30
2023-12-12T09:04:22.537Z,16.50
2023-12-12T09:05:22.439Z,14.90
2023-12-12T09:06:22.426Z,16.80
2023-12-12T09:07:22.485Z,19.50
2023-12-12T09:08:22.439Z,15.50
2023-12-12T09:09:22.369Z,12.90
2023-12-12T09:10:22.425Z,16.30
2023-12-12T09:11:22.375Z,14.80
2023-12-12T09:12:23.010Z,15.00
2023-12-12T09:13:22.398Z,22.00
2023-12-12T09:14:22.327Z,15.20
2023-12-12T09:15:22.298Z,15.50
2023-12-12T09:16:22.360Z,12.50
2023-12-12T09:17:22.314Z,15.50
2023-12-12T09:18:22.989Z,14.60
2023-12-12T09:19:22.470Z,16.30
2023-12-12T09:20:22.480Z,16.10
2023-12-12T09:21:23.569Z,20.80
2023-12-12T09:22:22.400Z,14.00
2023-12-12T09:23:22.229Z,15.70
2023-12-12T09:24:22.185Z,13.70
2023-12-12T09:25:22.245Z,18.60
2023-12-12T09:26:22.447Z,11.70
2023-12-12T09:27:22.230Z,15.70
2023-12-12T09:28:22.196Z,16.50
2023-12-12T09:29:22.157Z,16.40
2023-12-12T09:30:22.909Z,11.50
2023-12-12T09:31:22.232Z,15.20
2023-12-12T09:32:22.131Z,15.80
2023-12-12T09:33:22.179Z,16.40
2023-12-12T09:34:22.488Z,14.50
2023-12-12T09:35:22.090Z,14.30
2023-12-12T09:36:22.127Z,12.10
2023-12-12T09:37:22.084Z,13.80
2023-12-12T09:38:22.069Z,13.90
2023-12-12T09:39:22.065Z,15.80
2023-12-12T09:40:22.081Z,14.70
2023-12-12T09:41:22.072Z,15.40
2023-12-12T09:42:22.168Z,14.60
2023-12-12T09:43:22.052Z,15.40
2023-12-12T09:44:21.992Z,17.30
2023-12-12T09:45:22.055Z,15.60
2023-12-12T09:46:22.314Z,16.30
2023-12-12T09:47:22.001Z,12.00
2023-12-12T09:48:22.063Z,15.70
2023-12-12T09:49:22.081Z,15.80
2023-12-12T09:50:22.001Z,11.10
2023-12-12T09:51:22.065Z,14.20
2023-12-12T09:52:22.056Z,12.40
2023-12-12T09:53:22.437Z,14.20
2023-12-12T09:54:22.412Z,12.50
2023-12-12T09:55:21.974Z,14.30
2023-12-12T09:56:21.904Z,12.60
2023-12-12T09:57:23.344Z,13.00
2023-12-12T09:58:22.102Z,15.30
2023-12-12T09:59:21.882Z,13.20
2023-12-12T10:00:21.878Z,14.70
2023-12-12T10:01:23.269Z,14.40
2023-12-12T10:02:24.043Z,13.50
2023-12-12T10:03:21.871Z,13.20
2023-12-12T10:04:22.599Z,14.40
2023-12-12T10:05:22.425Z,16.30
2023-12-12T10:06:23.258Z,17.40
2023-12-12T10:07:22.707Z,11.90
2023-12-12T10:08:21.862Z,12.20
2023-12-12T10:09:21.887Z,16.30
2023-12-12T10:10:22.599Z,14.70
2023-12-12T10:11:23.592Z,15.20
2023-12-12T10:12:21.772Z,13.70
2023-12-12T10:13:22.437Z,13.50
2023-12-12T10:14:22.457Z,12.60
2023-12-12T10:15:22.523Z,13.90
2023-12-12T10:16:21.822Z,13.90
2023-12-12T10:17:21.755Z,17.80
2023-12-12T10:18:22.554Z,13.40
2023-12-12T10:19:22.488Z,18.50
2023-12-12T10:20:22.564Z,15.90
2023-12-12T10:21:21.974Z,16.00
2023-12-12T10:22:21.777Z,17.00
2023-12-12T10:23:22.450Z,16.80
2023-12-12T10:24:21.662Z,19.70
2023-12-12T10:25:21.649Z,15.50
2023-12-12T10:26:21.608Z,17.60
2023-12-12T10:27:22.930Z,19.50
2023-12-12T10:28:24.965Z,21.30
2023-12-12T10:29:21.716Z,18.20
2023-12-12T10:30:21.630Z,24.20
2023-12-12T10:31:22.584Z,26.70
2023-12-12T10:32:22.463Z,23.40
2023-12-12T10:33:21.727Z,22.20
2023-12-12T10:34:21.743Z,18.70
2023-12-12T10:35:22.430Z,26.00
2023-12-12T10:36:21.536Z,16.20
2023-12-12T10:37:22.645Z,20.10
2023-12-12T10:38:21.445Z,19.80
2023-12-12T10:39:21.416Z,23.70
2023-12-12T10:40:22.420Z,21.50
2023-12-12T10:41:25.347Z,18.20
2023-12-12T10:42:21.475Z,20.50
2023-12-12T10:43:21.456Z,18.00
2023-12-12T10:44:21.419Z,16.90
2023-12-12T10:45:22.404Z,18.90
2023-12-12T10:46:21.493Z,20.00
2023-12-12T10:47:23.582Z,13.70
2023-12-12T10:48:22.452Z,18.50
2023-12-12T10:49:22.076Z,15.30
2023-12-12T10:50:21.339Z,14.50
2023-12-12T10:51:21.329Z,18.60
2023-12-12T10:52:22.429Z,16.00
2023-12-12T10:53:22.593Z,16.30
2023-12-12T10:54:21.539Z,17.50
2023-12-12T10:55:21.368Z,17.30
2023-12-12T10:56:21.253Z,20.90
2023-12-12T10:57:21.233Z,17.60
2023-12-12T10:58:21.619Z,18.30
2023-12-12T10:59:56.922Z,19.60
2023-12-12T11:00:21.211Z,25.10
2023-12-12T11:01:22.310Z,26.10
2023-12-12T11:02:21.169Z,23.50
2023-12-12T11:03:21.388Z,23.30
2023-12-12T11:04:21.223Z,26.20
2023-12-12T11:05:23.724Z,24.70
2023-12-12T11:06:21.274Z,20.40
2023-12-12T11:07:21.184Z,24.90
2023-12-12T11:08:21.122Z,24.40
2023-12-12T11:09:21.180Z,22.20
2023-12-12T11:10:21.725Z,21.10
2023-12-12T11:11:23.899Z,24.00
2023-12-12T11:12:21.322Z,17.90
2023-12-12T11:13:21.930Z,21.10
2023-12-12T11:14:21.092Z,19.30
2023-12-12T11:15:21.877Z,23.00
2023-12-12T11:16:21.112Z,20.20
2023-12-12T11:17:21.085Z,21.30
2023-12-12T11:18:21.258Z,19.70
2023-12-12T11:19:21.999Z,21.80
2023-12-12T11:20:21.275Z,22.10
2023-12-12T11:21:21.996Z,24.50
2023-12-12T11:22:21.160Z,22.00
2023-12-12T11:23:21.339Z,25.90
2023-12-12T11:24:21.113Z,29.50
2023-12-12T11:25:22.577Z,29.80
2023-12-12T11:26:22.429Z,30.90
2023-12-12T11:27:20.991Z,32.40
2023-12-12T11:28:21.075Z,26.70
2023-12-12T11:29:20.923Z,27.10
2023-12-12T11:30:21.030Z,24.90
2023-12-12T11:31:22.061Z,30.90
2023-12-12T11:32:21.923Z,32.80
2023-12-12T11:33:20.950Z,24.80
2023-12-12T11:34:21.002Z,27.50
2023-12-12T11:35:22.372Z,28.00
2023-12-12T11:36:20.908Z,29.20
2023-12-12T11:37:20.917Z,25.90
2023-12-12T11:38:20.860Z,24.00
2023-12-12T11:39:20.800Z,23.10
2023-12-12T11:40:20.870Z,23.50
2023-12-12T11:41:20.805Z,30.20
2023-12-12T11:42:20.770Z,25.10
2023-12-12T11:43:20.918Z,26.80
2023-12-12T11:44:20.767Z,26.50
2023-12-12T11:45:20.807Z,25.90
2023-12-12T11:46:20.797Z,24.40
2023-12-12T11:47:20.847Z,21.80
2023-12-12T11:48:20.912Z,20.60
2023-12-12T11:49:20.850Z,25.50
2023-12-12T11:50:21.432Z,25.40
2023-12-12T11:51:22.199Z,23.80
2023-12-12T11:59:37.870Z,21.70
2023-12-12T11:59:44.195Z,24.70
2023-12-12T12:00:43.342Z,30.70
2023-12-12T12:01:43.517Z,24.30
2023-12-12T12:02:43.968Z,28.80
2023-12-12T12:03:43.323Z,34.00
2023-12-12T12:04:43.293Z,24.70
2023-12-12T12:05:43.967Z,27.30
2023-12-12T12:06:43.302Z,28.00
2023-12-12T12:07:43.967Z,30.40
2023-12-12T12:08:43.237Z,27.20
2023-12-12T12:09:43.226Z,29.40
2023-12-12T12:10:43.304Z,27.90
2023-12-12T12:11:43.218Z,25.60
2023-12-12T12:12:43.214Z,23.70
2023-12-12T12:13:44.508Z,23.20
2023-12-12T12:14:43.192Z,27.30
2023-12-12T12:15:43.181Z,22.50
2023-12-12T12:16:43.224Z,33.30
2023-12-12T12:17:43.270Z,22.60
2023-12-12T12:18:43.351Z,21.90
2023-12-12T12:19:45.013Z,25.30
2023-12-12T12:20:43.079Z,27.20
2023-12-12T12:21:43.122Z,26.40
2023-12-12T12:22:43.139Z,24.20
2023-12-12T12:23:43.081Z,17.90
2023-12-12T12:24:43.097Z,20.10
2023-12-12T12:25:43.089Z,25.80
2023-12-12T12:26:43.908Z,23.00
2023-12-12T12:27:43.080Z,19.40
2023-12-12T12:28:43.018Z,24.30
2023-12-12T12:29:43.039Z,22.60
2023-12-12T12:30:44.438Z,18.20
2023-12-12T12:31:43.490Z,24.90
2023-12-12T12:32:42.985Z,21.30
2023-12-12T12:33:43.915Z,16.70
2023-12-12T12:34:43.026Z,23.40
2023-12-12T12:35:42.968Z,20.20
2023-12-12T12:36:42.953Z,21.80
2023-12-12T12:37:44.597Z,20.40
2023-12-12T12:38:43.114Z,23.80
2023-12-12T12:39:43.417Z,21.00
2023-12-12T12:40:43.709Z,25.90
2023-12-12T12:41:42.953Z,17.90
2023-12-12T12:42:42.949Z,23.60
2023-12-12T12:43:43.455Z,20.20
2023-12-12T12:44:42.878Z,17.40
2023-12-12T12:45:43.044Z,20.80
2023-12-12T12:46:42.905Z,21.90
2023-12-12T12:47:42.882Z,22.50
2023-12-12T12:48:43.016Z,17.50
2023-12-12T12:49:42.840Z,19.70
2023-12-12T12:50:42.868Z,18.50
2023-12-12T12:51:42.822Z,18.00
2023-12-12T12:52:43.564Z,17.70
2023-12-12T12:53:43.422Z,13.10
2023-12-12T12:54:42.765Z,20.90
2023-12-12T12:55:42.824Z,16.40
2023-12-12T12:56:43.407Z,16.40
2023-12-12T12:57:42.723Z,18.40
2023-12-12T12:58:42.884Z,18.50
2023-12-12T12:59:42.707Z,19.10
2023-12-12T13:00:45.938Z,23.90
2023-12-12T13:01:42.817Z,14.40
2023-12-12T13:02:42.647Z,14.20
2023-12-12T13:03:42.751Z,16.80
2023-12-12T13:04:42.669Z,21.20
2023-12-12T13:05:42.843Z,17.10
2023-12-12T13:06:42.735Z,17.80
2023-12-12T13:07:42.646Z,20.00
2023-12-12T13:08:42.659Z,18.30
2023-12-12T13:09:42.583Z,16.20
2023-12-12T13:10:47.841Z,16.40
2023-12-12T13:11:42.592Z,22.00
2023-12-12T13:12:43.732Z,17.30
2023-12-12T13:13:42.635Z,17.30
2023-12-12T13:14:44.428Z,17.40